createdAt,value
2024-02-29T00:00:19.183Z,72.38
2024-02-29T00:03:10.279Z,72.12
2024-02-29T00:05:38.507Z,72.23
2024-02-29T00:08:07.411Z,72.42
2024-02-29T00:10:35.355Z,72.37
2024-02-29T00:13:03.399Z,72.41
2024-02-29T00:15:31.575Z,72.26
2024-02-29T00:17:59.514Z,73.09
2024-02-29T00:20:27.480Z,73.38
2024-02-29T00:22:55.450Z,73.09
2024-02-29T00:25:23.391Z,72.94
2024-02-29T00:27:51.311Z,72.40
2024-02-29T00:30:19.716Z,72.35
2024-02-29T00:32:48.220Z,72.18
2024-02-29T00:35:16.258Z,71.97
2024-02-29T00:37:44.282Z,72.09
2024-02-29T00:40:12.752Z,71.96
2024-02-29T00:42:40.819Z,71.63
2024-02-29T00:45:09.375Z,71.19
2024-02-29T00:47:37.342Z,71.19
2024-02-29T00:50:05.997Z,71.53
2024-02-29T00:52:33.937Z,71.54
2024-02-29T00:55:03.624Z,71.62
2024-02-29T00:57:31.722Z,71.47
2024-02-29T00:59:59.704Z,71.32
2024-02-29T01:02:27.721Z,71.64
2024-02-29T01:04:55.681Z,71.65
2024-02-29T01:07:24.137Z,71.53
2024-02-29T01:09:52.335Z,71.97
2024-02-29T01:12:20.389Z,72.11
2024-02-29T01:14:48.273Z,72.14
2024-02-29T01:17:16.194Z,72.62
2024-02-29T01:19:46.969Z,72.41
2024-02-29T01:22:17.923Z,72.37
2024-02-29T01:24:46.203Z,72.17
2024-02-29T01:27:14.285Z,72.25
2024-02-29T01:29:42.242Z,72.39
2024-02-29T01:32:19.030Z,72.15
2024-02-29T01:34:53.845Z,72.09
2024-02-29T01:37:21.773Z,72.25
2024-02-29T01:39:49.812Z,72.44
2024-02-29T01:42:17.978Z,72.28
2024-02-29T01:44:57.064Z,72.39
2024-02-29T01:47:26.063Z,72.28
2024-02-29T01:49:59.205Z,72.45
2024-02-29T01:52:28.109Z,72.27
2024-02-29T01:54:56.089Z,72.35
2024-02-29T01:57:25.216Z,72.51
2024-02-29T01:59:53.560Z,72.33
2024-02-29T02:02:21.492Z,72.64
2024-02-29T02:04:49.484Z,72.21
2024-02-29T02:07:17.377Z,72.17
2024-02-29T02:09:47.247Z,72.32
2024-02-29T02:12:15.411Z,72.59
2024-02-29T02:14:44.802Z,72.42
2024-02-29T02:17:12.949Z,72.19
2024-02-29T02:19:41.755Z,72.48
2024-02-29T02:22:10.919Z,72.32
2024-02-29T02:24:39.079Z,72.46
2024-02-29T02:27:07.284Z,72.72
2024-02-29T02:29:35.244Z,72.16
2024-02-29T02:32:06.003Z,72.27
2024-02-29T02:34:34.617Z,72.48
2024-02-29T02:37:02.600Z,72.45
2024-02-29T02:39:30.679Z,72.37
2024-02-29T02:41:58.639Z,72.11
2024-02-29T02:44:26.515Z,72.25
2024-02-29T02:46:54.427Z,72.08
2024-02-29T02:49:22.379Z,72.31
2024-02-29T02:51:50.308Z,72.41
2024-02-29T02:54:18.360Z,72.31
2024-02-29T02:56:46.313Z,72.12
2024-02-29T02:59:14.233Z,71.78
2024-02-29T03:01:42.329Z,71.59
2024-02-29T03:04:10.307Z,71.23
2024-02-29T03:06:38.542Z,71.24
2024-02-29T03:09:09.088Z,71.16
2024-02-29T03:11:37.137Z,71.29
2024-02-29T03:14:05.685Z,71.60
2024-02-29T03:16:35.737Z,72.05
2024-02-29T03:19:06.132Z,72.19
2024-02-29T03:21:34.265Z,72.41
2024-02-29T03:24:02.373Z,72.19
2024-02-29T03:26:30.347Z,72.11
2024-02-29T03:28:58.335Z,72.12
2024-02-29T03:31:26.405Z,71.95
2024-02-29T03:33:54.719Z,72.05
2024-02-29T03:36:22.858Z,71.98
2024-02-29T03:38:50.984Z,71.67
2024-02-29T03:41:19.550Z,71.42
2024-02-29T03:43:47.490Z,71.29
2024-02-29T03:46:15.500Z,71.22
2024-02-29T03:48:43.719Z,71.64
2024-02-29T03:51:11.850Z,71.63
2024-02-29T03:53:39.814Z,71.84
2024-02-29T03:56:07.972Z,72.22
2024-02-29T03:58:36.011Z,72.61
2024-02-29T04:01:06.821Z,72.87
2024-02-29T04:03:35.009Z,72.76
2024-02-29T04:06:03.050Z,72.61
2024-02-29T04:08:31.223Z,72.58
2024-02-29T04:10:59.590Z,72.24
2024-02-29T04:13:27.502Z,72.51
2024-02-29T04:15:55.582Z,72.45
2024-02-29T04:18:23.628Z,72.41
2024-02-29T04:20:51.830Z,72.52
2024-02-29T04:23:19.803Z,72.68
2024-02-29T04:25:47.750Z,72.66
2024-02-29T04:28:15.993Z,72.73
2024-02-29T04:30:44.499Z,72.60
2024-02-29T04:33:13.153Z,72.70
2024-02-29T04:35:41.407Z,72.67
2024-02-29T04:38:09.435Z,72.67
2024-02-29T04:40:37.434Z,72.48
2024-02-29T04:43:05.560Z,72.56
2024-02-29T04:45:34.347Z,72.66
2024-02-29T04:48:02.481Z,72.76
2024-02-29T04:50:30.578Z,72.93
2024-02-29T04:52:58.448Z,73.27
2024-02-29T04:55:26.683Z,73.29
2024-02-29T04:57:54.640Z,73.34
2024-02-29T05:00:22.805Z,73.24
2024-02-29T05:02:50.702Z,73.42
2024-02-29T05:05:18.619Z,73.14
2024-02-29T05:07:47.326Z,73.49
2024-02-29T05:10:15.448Z,73.43
2024-02-29T05:12:43.514Z,73.47
2024-02-29T05:15:11.532Z,73.49
2024-02-29T05:17:39.602Z,73.68
2024-02-29T05:20:08.521Z,73.91
2024-02-29T05:22:39.616Z,73.92
2024-02-29T05:25:11.052Z,74.25
2024-02-29T05:27:39.325Z,74.29
2024-02-29T05:30:07.774Z,74.31
2024-02-29T05:32:35.860Z,74.14
2024-02-29T05:35:05.134Z,74.45
2024-02-29T05:37:33.389Z,74.46
2024-02-29T05:40:01.482Z,74.69
2024-02-29T05:42:29.667Z,74.95
2024-02-29T05:44:57.942Z,75.08
2024-02-29T05:47:26.007Z,75.20
2024-02-29T05:49:53.960Z,75.33
2024-02-29T05:52:21.970Z,75.71
2024-02-29T05:54:50.664Z,76.12
2024-02-29T05:57:18.816Z,76.04
2024-02-29T05:59:47.218Z,76.03
2024-02-29T06:02:15.152Z,76.32
2024-02-29T06:04:43.343Z,76.50
2024-02-29T06:07:11.328Z,76.51
2024-02-29T06:09:41.286Z,76.67
2024-02-29T06:12:09.914Z,76.80
2024-02-29T06:14:37.843Z,76.84
2024-02-29T06:17:05.723Z,76.82
2024-02-29T06:19:39.591Z,76.91
2024-02-29T06:22:08.419Z,76.88
2024-02-29T06:24:37.297Z,76.97
2024-02-29T06:27:05.643Z,77.19
2024-02-29T06:29:33.631Z,77.05
2024-02-29T06:32:01.909Z,77.29
2024-02-29T06:34:29.953Z,77.29
2024-02-29T06:36:59.155Z,77.48
2024-02-29T06:39:27.347Z,77.40
2024-02-29T06:41:55.332Z,77.36
2024-02-29T06:44:23.344Z,77.43
2024-02-29T06:46:51.401Z,77.48
2024-02-29T06:49:24.209Z,77.96
2024-02-29T06:51:52.415Z,78.49
2024-02-29T06:54:20.368Z,78.31
2024-02-29T06:56:48.288Z,78.39
2024-02-29T06:59:16.667Z,78.44
2024-02-29T07:01:44.683Z,78.63
2024-02-29T07:04:12.755Z,78.58
2024-02-29T07:06:40.772Z,78.61
2024-02-29T07:09:08.954Z,78.57
2024-02-29T07:11:36.859Z,78.41
2024-02-29T07:14:04.857Z,78.14
2024-02-29T07:16:34.104Z,78.51
2024-02-29T07:19:02.112Z,78.49
2024-02-29T07:21:30.263Z,78.02
2024-02-29T07:23:58.224Z,77.75
2024-02-29T07:26:27.354Z,77.95
2024-02-29T07:28:55.381Z,78.07
2024-02-29T07:31:23.497Z,78.21
2024-02-29T07:33:51.692Z,78.40
2024-02-29T07:36:19.646Z,78.43
2024-02-29T07:38:48.028Z,78.32
2024-02-29T07:41:16.183Z,78.29
2024-02-29T07:43:44.314Z,78.61
2024-02-29T07:46:12.385Z,78.75
2024-02-29T07:48:40.431Z,78.92
2024-02-29T07:51:08.415Z,78.75
2024-02-29T07:53:36.376Z,78.74
2024-02-29T07:56:05.885Z,78.55
2024-02-29T07:58:33.843Z,78.69
2024-02-29T08:01:01.940Z,78.52
2024-02-29T08:03:30.025Z,78.04
2024-02-29T08:05:58.196Z,78.10
2024-02-29T08:08:26.157Z,78.08
2024-02-29T08:10:54.081Z,78.19
2024-02-29T08:13:22.182Z,77.98
2024-02-29T08:15:50.312Z,77.84
2024-02-29T08:18:19.183Z,77.63
2024-02-29T08:20:47.195Z,77.63
2024-02-29T08:23:16.928Z,77.73
2024-02-29T08:25:44.970Z,77.66
2024-02-29T08:28:13.136Z,77.33
2024-02-29T08:30:41.431Z,77.47
2024-02-29T08:33:09.500Z,77.67
2024-02-29T08:35:37.472Z,77.61
2024-02-29T08:38:05.779Z,77.47
2024-02-29T08:40:33.997Z,77.46
2024-02-29T08:43:02.152Z,77.36
2024-02-29T08:45:30.140Z,77.23
2024-02-29T08:47:58.184Z,77.23
2024-02-29T08:50:26.185Z,77.22
2024-02-29T08:52:54.101Z,76.79
2024-02-29T08:55:22.204Z,76.77
2024-02-29T08:57:50.387Z,76.72
2024-02-29T09:00:18.804Z,76.58
2024-02-29T09:02:46.742Z,76.70
2024-02-29T09:05:16.527Z,76.74
2024-02-29T09:07:44.545Z,76.45
2024-02-29T09:10:13.927Z,76.58
2024-02-29T09:12:42.380Z,76.49
2024-02-29T09:15:10.854Z,76.56
2024-02-29T09:17:38.817Z,76.83
2024-02-29T09:20:07.763Z,76.86
2024-02-29T09:22:35.670Z,76.73
2024-02-29T09:25:05.186Z,76.55
2024-02-29T09:27:33.460Z,76.69
2024-02-29T09:30:01.504Z,76.81
2024-02-29T09:32:29.955Z,76.47
2024-02-29T09:34:58.043Z,76.61
2024-02-29T09:37:26.172Z,76.41
2024-02-29T09:39:54.202Z,76.41
2024-02-29T09:42:22.357Z,76.16
2024-02-29T09:44:51.547Z,75.97
2024-02-29T09:47:20.803Z,76.44
2024-02-29T09:49:51.169Z,76.64
2024-02-29T09:52:22.614Z,76.66
2024-02-29T09:54:50.639Z,76.44
2024-02-29T09:57:19.060Z,75.99
2024-02-29T09:59:47.172Z,76.09
2024-02-29T10:02:18.960Z,75.74
2024-02-29T10:04:48.027Z,75.78
2024-02-29T10:07:16.188Z,75.55
2024-02-29T10:09:45.576Z,75.88
2024-02-29T10:12:18.643Z,75.50
2024-02-29T10:14:49.802Z,75.14
2024-02-29T10:17:17.649Z,75.28
2024-02-29T10:19:51.799Z,75.37
2024-02-29T10:22:23.238Z,75.34
2024-02-29T10:24:55.930Z,75.15
2024-02-29T10:27:24.067Z,75.22
2024-02-29T10:29:51.938Z,74.93
2024-02-29T10:32:19.850Z,75.04
2024-02-29T10:34:48.603Z,74.91
2024-02-29T10:37:17.177Z,75.05
2024-02-29T10:39:45.105Z,74.96
2024-02-29T10:42:13.282Z,74.62
2024-02-29T10:44:44.148Z,74.67
2024-02-29T10:47:13.306Z,74.07
2024-02-29T10:49:52.582Z,74.36
2024-02-29T10:52:24.403Z,74.39
2024-02-29T10:55:09.563Z,74.37
2024-02-29T10:57:58.267Z,74.38
2024-02-29T11:00:26.185Z,74.13
2024-02-29T11:02:55.133Z,74.08
2024-02-29T11:05:25.094Z,74.81
2024-02-29T11:07:54.044Z,74.90
2024-02-29T11:10:22.008Z,75.56
2024-02-29T11:12:57.247Z,76.21
2024-02-29T11:15:27.465Z,75.48
2024-02-29T11:17:55.656Z,75.42
2024-02-29T11:20:24.404Z,74.78
2024-02-29T11:23:10.575Z,73.72
2024-02-29T11:25:54.968Z,73.63
2024-02-29T11:29:17.940Z,73.11
2024-02-29T11:31:53.780Z,72.80
2024-02-29T11:34:22.616Z,73.01
2024-02-29T11:36:51.536Z,73.12
2024-02-29T11:39:23.795Z,72.93
2024-02-29T11:42:01.843Z,72.72
2024-02-29T11:44:34.526Z,72.76
2024-02-29T11:47:03.374Z,72.73
2024-02-29T11:49:31.307Z,73.06
2024-02-29T11:51:59.556Z,72.72
2024-02-29T11:54:27.522Z,72.91
2024-02-29T11:56:55.784Z,72.68
2024-02-29T11:59:27.369Z,72.44
2024-02-29T12:01:55.314Z,72.65
2024-02-29T12:04:23.451Z,72.65
2024-02-29T12:06:51.614Z,72.67
2024-02-29T12:09:19.506Z,72.47
2024-02-29T12:11:47.639Z,72.41
2024-02-29T12:14:15.833Z,73.31
2024-02-29T12:16:44.797Z,73.51
2024-02-29T12:19:16.728Z,73.02
2024-02-29T12:21:45.306Z,72.88
2024-02-29T12:24:13.330Z,72.97
2024-02-29T12:26:42.542Z,72.41
2024-02-29T12:29:10.691Z,72.36
2024-02-29T12:31:41.733Z,72.33
2024-02-29T12:34:09.559Z,72.19
2024-02-29T12:36:37.474Z,72.39
2024-02-29T12:39:05.926Z,72.31
2024-02-29T12:41:33.829Z,72.14
2024-02-29T12:44:02.710Z,72.01
2024-02-29T12:46:30.738Z,72.16
2024-02-29T12:48:58.620Z,72.25
2024-02-29T12:51:27.808Z,72.39
2024-02-29T12:53:55.743Z,72.46
2024-02-29T12:56:23.606Z,72.37
2024-02-29T12:58:51.480Z,72.21
2024-02-29T13:01:19.450Z,72.52
2024-02-29T13:03:47.841Z,72.64
2024-02-29T13:06:15.775Z,72.83
2024-02-29T13:08:45.086Z,72.94
2024-02-29T13:11:13.118Z,72.99
2024-02-29T13:13:41.389Z,73.11
2024-02-29T13:16:09.566Z,73.10
2024-02-29T13:18:37.389Z,73.16
2024-02-29T13:21:06.351Z,72.96
2024-02-29T13:23:34.459Z,72.79
2024-02-29T13:26:02.750Z,72.96
2024-02-29T13:28:31.018Z,73.02
2024-02-29T13:30:59.023Z,73.16
2024-02-29T13:33:27.835Z,72.97
2024-02-29T13:35:55.818Z,73.17
2024-02-29T13:38:23.717Z,73.34
2024-02-29T13:40:51.607Z,73.40
2024-02-29T13:43:19.585Z,73.45
2024-02-29T13:45:47.651Z,73.53
2024-02-29T13:48:15.577Z,73.70
2024-02-29T13:50:43.684Z,73.91
2024-02-29T13:53:12.007Z,73.77
2024-02-29T13:55:39.916Z,74.03
2024-02-29T13:58:07.936Z,74.02
2024-02-29T14:00:35.898Z,74.11
2024-02-29T14:03:03.947Z,74.00
2024-02-29T14:05:31.891Z,74.00
2024-02-29T14:08:00.037Z,73.82
2024-02-29T14:10:28.002Z,73.88
2024-02-29T14:12:56.646Z,73.88
2024-02-29T14:15:24.745Z,73.85
2024-02-29T14:17:52.840Z,73.91
2024-02-29T14:20:20.692Z,73.83
2024-02-29T14:22:48.818Z,73.52
2024-02-29T14:25:18.508Z,73.70
2024-02-29T14:27:47.057Z,74.00
2024-02-29T14:30:15.536Z,74.00
2024-02-29T14:32:43.760Z,73.84
2024-02-29T14:35:11.796Z,73.74
2024-02-29T14:37:39.694Z,73.79
2024-02-29T14:40:12.136Z,73.83
2024-02-29T14:42:40.637Z,73.94
2024-02-29T14:45:09.592Z,74.02
2024-02-29T14:47:37.795Z,74.21
2024-02-29T14:50:06.492Z,74.04
2024-02-29T14:52:36.328Z,73.75
2024-02-29T14:55:07.656Z,73.71
2024-02-29T14:57:35.560Z,73.73
2024-02-29T15:00:12.762Z,73.86
2024-02-29T15:02:43.138Z,73.78
2024-02-29T15:05:11.073Z,73.79
2024-02-29T15:07:40.249Z,73.85
2024-02-29T15:10:08.968Z,74.00
2024-02-29T15:12:36.808Z,74.09
2024-02-29T15:15:05.518Z,74.11
2024-02-29T15:17:34.389Z,74.08
2024-02-29T15:20:06.058Z,74.02
2024-02-29T15:22:33.934Z,73.87
2024-02-29T15:25:01.877Z,73.97
2024-02-29T15:27:38.893Z,74.10
2024-02-29T15:30:08.276Z,74.24
2024-02-29T15:32:36.490Z,74.24
2024-02-29T15:35:06.139Z,74.51
2024-02-29T15:37:33.973Z,74.36
2024-02-29T15:40:02.302Z,74.33
2024-02-29T15:42:30.438Z,74.49
2024-02-29T15:44:58.284Z,74.61
2024-02-29T15:47:26.375Z,74.83
2024-02-29T15:49:57.557Z,74.88
2024-02-29T15:52:25.471Z,74.91
2024-02-29T15:54:53.364Z,75.10
2024-02-29T15:57:21.418Z,75.09
2024-02-29T15:59:49.324Z,75.26
2024-02-29T16:02:17.181Z,75.27
2024-02-29T16:04:45.138Z,75.30
2024-02-29T16:07:13.070Z,75.65
2024-02-29T16:09:44.036Z,75.61
2024-02-29T16:12:12.425Z,75.53
2024-02-29T16:14:41.640Z,75.63
2024-02-29T16:17:09.678Z,75.63
2024-02-29T16:19:37.499Z,75.68
2024-02-29T16:22:05.432Z,75.92
2024-02-29T16:24:33.460Z,76.07
2024-02-29T16:27:01.384Z,76.26
2024-02-29T16:29:29.788Z,76.34
2024-02-29T16:31:57.659Z,76.38
2024-02-29T16:34:25.576Z,76.49
2024-02-29T16:36:53.748Z,76.59
2024-02-29T16:39:21.696Z,76.67
2024-02-29T16:41:50.308Z,76.68
2024-02-29T16:44:18.239Z,76.82
2024-02-29T16:46:46.526Z,76.85
2024-02-29T16:49:15.137Z,76.85
2024-02-29T16:51:43.025Z,77.07
2024-02-29T16:54:10.906Z,77.10
2024-02-29T16:56:38.935Z,76.82
2024-02-29T16:59:07.145Z,76.90
2024-02-29T17:01:35.282Z,76.92
2024-02-29T17:04:03.256Z,77.02
2024-02-29T17:06:32.508Z,77.12
2024-02-29T17:09:00.464Z,77.13
2024-02-29T17:11:28.519Z,77.27
2024-02-29T17:13:57.424Z,77.31
2024-02-29T17:16:25.448Z,77.20
2024-02-29T17:18:54.671Z,77.19
2024-02-29T17:21:26.314Z,77.23
2024-02-29T17:23:54.408Z,77.37
2024-02-29T17:26:22.285Z,77.27
2024-02-29T17:28:52.594Z,77.29
2024-02-29T17:31:27.894Z,77.32
2024-02-29T17:33:57.258Z,77.37
2024-02-29T17:36:25.447Z,77.30
2024-02-29T17:38:53.475Z,77.34
2024-02-29T17:41:21.745Z,77.33
2024-02-29T17:43:50.032Z,77.34
2024-02-29T17:46:17.920Z,77.20
2024-02-29T17:48:46.316Z,77.33
2024-02-29T17:51:14.385Z,77.41
2024-02-29T17:53:43.221Z,77.46
2024-02-29T17:56:13.704Z,77.51
2024-02-29T17:58:41.610Z,77.63
2024-02-29T18:01:09.580Z,77.62
2024-02-29T18:03:37.541Z,77.89
2024-02-29T18:06:05.853Z,77.69
2024-02-29T18:08:33.753Z,78.46
2024-02-29T18:11:01.616Z,78.56
2024-02-29T18:13:29.572Z,78.41
2024-02-29T18:15:57.539Z,78.76
2024-02-29T18:18:25.628Z,78.00
2024-02-29T18:20:53.576Z,77.53
2024-02-29T18:23:21.427Z,77.20
2024-02-29T18:25:49.946Z,77.48
2024-02-29T18:28:18.029Z,77.37
2024-02-29T18:30:46.148Z,77.26
2024-02-29T18:33:14.123Z,77.14
2024-02-29T18:35:42.534Z,77.22
2024-02-29T18:38:10.444Z,77.40
2024-02-29T18:40:38.939Z,77.49
2024-02-29T18:43:06.865Z,77.47
2024-02-29T18:45:34.773Z,77.37
2024-02-29T18:48:02.693Z,77.41
2024-02-29T18:50:30.528Z,77.42
2024-02-29T18:52:58.353Z,77.47
2024-02-29T18:55:26.267Z,77.54
2024-02-29T18:57:54.281Z,77.57
2024-02-29T19:00:22.463Z,77.65
2024-02-29T19:02:51.814Z,77.57
2024-02-29T19:05:20.048Z,77.53
2024-02-29T19:07:47.931Z,77.50
2024-02-29T19:10:15.805Z,77.59
2024-02-29T19:12:44.097Z,77.76
2024-02-29T19:15:12.111Z,77.86
2024-02-29T19:17:40.073Z,77.92
2024-02-29T19:20:12.042Z,77.94
2024-02-29T19:22:40.268Z,77.83
2024-02-29T19:25:08.808Z,77.93
2024-02-29T19:27:36.672Z,78.01
2024-02-29T19:30:06.910Z,78.08
2024-02-29T19:32:34.914Z,77.86
2024-02-29T19:35:03.970Z,77.27
2024-02-29T19:37:31.986Z,77.18
2024-02-29T19:40:00.414Z,77.52
2024-02-29T19:42:28.451Z,77.94
2024-02-29T19:44:59.301Z,78.20
2024-02-29T19:47:27.288Z,78.29
2024-02-29T19:49:55.143Z,78.22
2024-02-29T19:52:23.142Z,78.28
2024-02-29T19:54:52.947Z,78.12
2024-02-29T19:57:20.985Z,78.34
2024-02-29T19:59:48.937Z,78.41
2024-02-29T20:02:17.792Z,78.97
2024-02-29T20:04:45.724Z,79.27
2024-02-29T20:07:13.871Z,79.60
2024-02-29T20:09:41.809Z,79.57
2024-02-29T20:12:09.728Z,79.84
2024-02-29T20:14:37.545Z,79.83
2024-02-29T20:17:05.373Z,79.96
2024-02-29T20:19:35.309Z,80.03
2024-02-29T20:22:04.577Z,80.73
2024-02-29T20:24:32.692Z,81.15
2024-02-29T20:27:00.544Z,81.36
2024-02-29T20:29:28.489Z,81.36
2024-02-29T20:31:56.489Z,81.68
2024-02-29T20:34:24.576Z,81.96
2024-02-29T20:36:55.628Z,82.17
2024-02-29T20:39:23.481Z,82.34
2024-02-29T20:41:51.368Z,82.47
2024-02-29T20:44:19.385Z,82.74
2024-02-29T20:46:47.443Z,82.96
2024-02-29T20:49:17.203Z,83.14
2024-02-29T20:51:45.724Z,83.18
2024-02-29T20:54:13.711Z,83.58
2024-02-29T20:56:41.896Z,83.72
2024-02-29T20:59:10.135Z,83.55
2024-02-29T21:01:38.034Z,83.69
2024-02-29T21:04:06.035Z,83.78
2024-02-29T21:06:34.029Z,83.80
2024-02-29T21:09:01.898Z,83.88
2024-02-29T21:11:29.829Z,83.53
2024-02-29T21:13:57.900Z,83.34
2024-02-29T21:16:25.963Z,83.46
2024-02-29T21:18:54.113Z,83.56
2024-02-29T21:21:21.981Z,83.59
2024-02-29T21:23:50.400Z,83.58
2024-02-29T21:26:19.139Z,83.58
2024-02-29T21:28:48.574Z,83.52
2024-02-29T21:31:17.161Z,83.55
2024-02-29T21:33:45.283Z,83.62
2024-02-29T21:36:13.152Z,83.20
2024-02-29T21:38:44.556Z,83.12
2024-02-29T21:41:12.456Z,83.25
2024-02-29T21:43:40.572Z,83.42
2024-02-29T21:46:09.196Z,83.70
2024-02-29T21:48:37.066Z,83.81
2024-02-29T21:51:05.127Z,84.05
2024-02-29T21:53:32.952Z,84.36
2024-02-29T21:56:00.878Z,84.50
2024-02-29T21:58:30.885Z,84.36
2024-02-29T22:00:58.858Z,84.45
2024-02-29T22:03:26.791Z,84.54
2024-02-29T22:05:54.748Z,84.27
2024-02-29T22:08:22.919Z,84.35
2024-02-29T22:10:50.994Z,84.28
2024-02-29T22:13:19.090Z,84.27
2024-02-29T22:15:47.057Z,84.12
2024-02-29T22:18:15.699Z,84.33
2024-02-29T22:20:47.223Z,84.34
2024-02-29T22:23:15.378Z,84.50
2024-02-29T22:25:43.924Z,84.63
2024-02-29T22:28:11.944Z,84.38
2024-02-29T22:30:39.818Z,84.34
2024-02-29T22:33:07.813Z,84.39
2024-02-29T22:35:35.826Z,84.46
2024-02-29T22:38:03.930Z,84.36
2024-02-29T22:40:31.912Z,84.33
2024-02-29T22:42:59.921Z,84.56
2024-02-29T22:45:27.801Z,84.58
2024-02-29T22:47:55.733Z,84.50
2024-02-29T22:50:23.753Z,84.22
2024-02-29T22:52:52.126Z,84.35
2024-02-29T22:55:20.015Z,84.42
2024-02-29T22:57:48.343Z,84.30
2024-02-29T23:00:27.077Z,84.14
2024-02-29T23:02:54.937Z,84.14
2024-02-29T23:05:23.334Z,84.06
2024-02-29T23:07:53.399Z,84.08
2024-02-29T23:10:21.513Z,84.08
2024-02-29T23:12:50.353Z,84.14
2024-02-29T23:15:18.970Z,84.14
2024-02-29T23:17:49.483Z,84.04
2024-02-29T23:20:18.358Z,83.79
2024-02-29T23:22:46.513Z,83.86
2024-02-29T23:25:15.034Z,83.81
2024-02-29T23:27:42.976Z,83.95
2024-02-29T23:30:15.062Z,84.00
2024-02-29T23:32:42.872Z,84.05
2024-02-29T23:35:10.818Z,83.75
2024-02-29T23:37:38.655Z,84.01
2024-02-29T23:40:10.688Z,84.00
2024-02-29T23:42:38.624Z,84.12
2024-02-29T23:45:07.170Z,83.95
2024-02-29T23:47:34.970Z,83.60
2024-02-29T23:50:03.846Z,83.61
2024-02-29T23:52:31.861Z,83.62
2024-02-29T23:55:00.709Z,83.40
2024-02-29T23:57:28.642Z,83.64
2024-02-29T23:59:56.597Z,83.23
